createdAt,value
2023-02-19T00:01:47.575Z,14.25
2023-02-19T00:04:17.307Z,17.08
2023-02-19T00:06:45.779Z,13.60
2023-02-19T00:09:14.922Z,13.77
2023-02-19T00:11:42.798Z,12.50
2023-02-19T00:14:14.782Z,13.88
2023-02-19T00:16:42.136Z,11.70
2023-02-19T00:19:14.133Z,11.80
2023-02-19T00:21:41.492Z,12.57
2023-02-19T00:24:11.296Z,12.85
2023-02-19T00:26:40.820Z,13.48
2023-02-19T00:29:12.395Z,12.05
2023-02-19T00:31:40.459Z,12.82
2023-02-19T00:34:08.110Z,13.50
2023-02-19T00:36:38.154Z,12.20
2023-02-19T00:39:08.001Z,11.93
2023-02-19T00:41:35.439Z,11.25
2023-02-19T00:44:06.257Z,11.82
2023-02-19T00:46:45.992Z,11.88
2023-02-19T00:49:22.525Z,12.43
2023-02-19T00:51:52.206Z,11.23
2023-02-19T00:54:20.411Z,12.10
2023-02-19T00:56:47.718Z,12.65
2023-02-19T00:59:15.875Z,12.38
2023-02-19T01:01:44.662Z,11.75
2023-02-19T01:04:12.298Z,11.38
2023-02-19T01:06:39.585Z,11.13
2023-02-19T01:09:07.859Z,12.40
2023-02-19T01:11:35.306Z,11.93
2023-02-19T01:14:03.633Z,11.65
2023-02-19T01:16:31.221Z,12.35
2023-02-19T01:18:58.945Z,10.95
2023-02-19T01:21:28.787Z,10.80
2023-02-19T01:23:57.454Z,12.00
2023-02-19T01:26:30.263Z,11.52
2023-02-19T01:28:58.370Z,11.35
2023-02-19T01:31:26.188Z,12.18
2023-02-19T01:33:56.607Z,11.35
2023-02-19T01:36:24.898Z,11.30
2023-02-19T01:38:52.379Z,11.80
2023-02-19T01:41:23.023Z,12.18
2023-02-19T01:44:05.245Z,12.23
2023-02-19T01:46:42.669Z,11.68
2023-02-19T01:49:18.739Z,12.10
2023-02-19T01:51:55.976Z,11.05
2023-02-19T01:54:26.569Z,11.10
2023-02-19T01:56:54.619Z,11.45
2023-02-19T01:59:21.901Z,11.63
2023-02-19T02:01:49.667Z,11.20
2023-02-19T02:04:18.759Z,11.30
2023-02-19T02:06:57.453Z,11.40
2023-02-19T02:09:46.761Z,12.23
2023-02-19T02:12:14.279Z,11.10
2023-02-19T02:14:47.474Z,11.65
2023-02-19T02:17:38.169Z,10.63
2023-02-19T02:20:08.101Z,10.95
2023-02-19T02:22:47.143Z,11.35
2023-02-19T02:25:17.382Z,12.15
2023-02-19T02:27:53.744Z,11.98
2023-02-19T02:30:56.099Z,12.18
2023-02-19T02:33:49.438Z,11.48
2023-02-19T02:36:54.568Z,11.32
2023-02-19T02:39:26.431Z,12.50
2023-02-19T02:42:17.816Z,11.10
2023-02-19T02:45:12.844Z,11.88
2023-02-19T02:47:56.763Z,11.15
2023-02-19T02:50:27.687Z,11.13
2023-02-19T02:53:21.752Z,11.18
2023-02-19T02:55:53.302Z,11.63
2023-02-19T02:58:23.461Z,11.40
2023-02-19T03:01:18.433Z,11.07
2023-02-19T03:03:48.687Z,11.80
2023-02-19T03:06:19.982Z,10.63
2023-02-19T03:09:30.286Z,11.45
2023-02-19T03:12:22.364Z,10.80
2023-02-19T03:15:12.732Z,11.32
2023-02-19T03:18:05.486Z,11.00
2023-02-19T03:20:35.620Z,10.65
2023-02-19T03:23:03.094Z,10.82
2023-02-19T03:25:54.426Z,10.95
2023-02-19T03:28:53.951Z,10.70
2023-02-19T03:31:24.667Z,10.20
2023-02-19T03:33:58.161Z,11.23
2023-02-19T03:36:32.627Z,11.77
2023-02-19T03:39:04.649Z,10.70
2023-02-19T03:41:38.043Z,10.57
2023-02-19T03:44:52.613Z,10.60
2023-02-19T03:47:30.301Z,10.43
2023-02-19T03:50:12.945Z,11.27
2023-02-19T03:52:46.346Z,9.90
2023-02-19T03:55:18.164Z,10.70
2023-02-19T03:57:54.122Z,11.35
2023-02-19T04:00:45.264Z,10.45
2023-02-19T04:03:37.567Z,10.55
2023-02-19T04:06:14.536Z,11.13
2023-02-19T04:08:47.224Z,10.23
2023-02-19T04:11:16.974Z,10.05
2023-02-19T04:14:13.465Z,10.25
2023-02-19T04:16:43.784Z,9.32
2023-02-19T04:19:16.761Z,9.90
2023-02-19T04:21:46.580Z,10.52
2023-02-19T04:24:28.061Z,9.57
2023-02-19T04:26:56.048Z,9.88
2023-02-19T04:29:23.457Z,10.57
2023-02-19T04:31:50.913Z,9.77
2023-02-19T04:34:18.274Z,9.63
2023-02-19T04:36:45.778Z,9.10
2023-02-19T04:39:13.088Z,9.32
2023-02-19T04:41:40.468Z,9.20
2023-02-19T04:44:07.761Z,9.50
2023-02-19T04:46:35.095Z,9.93
2023-02-19T04:49:02.367Z,8.60
2023-02-19T04:51:29.627Z,8.88
2023-02-19T04:53:56.959Z,9.38
2023-02-19T04:56:24.293Z,9.13
2023-02-19T04:58:51.678Z,9.18
2023-02-19T05:01:18.922Z,8.98
2023-02-19T05:03:46.226Z,8.88
2023-02-19T05:06:14.257Z,9.50
2023-02-19T05:08:41.739Z,8.43
2023-02-19T05:11:11.229Z,8.82
2023-02-19T05:13:40.007Z,8.45
2023-02-19T05:16:16.077Z,7.85
2023-02-19T05:18:45.289Z,8.68
2023-02-19T05:21:13.121Z,8.27
2023-02-19T05:23:41.105Z,9.20
2023-02-19T05:26:17.140Z,7.90
2023-02-19T05:28:48.776Z,8.65
2023-02-19T05:31:16.744Z,8.23
2023-02-19T05:33:45.762Z,7.38
2023-02-19T05:36:14.206Z,7.88
2023-02-19T05:38:41.815Z,8.35
2023-02-19T05:41:17.579Z,8.18
2023-02-19T05:43:46.501Z,7.43
2023-02-19T05:46:16.821Z,7.70
2023-02-19T05:48:44.151Z,7.72
2023-02-19T05:51:14.121Z,7.15
2023-02-19T05:53:42.109Z,7.50
2023-02-19T05:56:34.933Z,7.47
2023-02-19T05:59:20.405Z,7.03
2023-02-19T06:01:48.951Z,7.50
2023-02-19T06:04:17.253Z,6.70
2023-02-19T06:06:44.841Z,7.15
2023-02-19T06:09:12.718Z,6.78
2023-02-19T06:11:40.546Z,7.10
2023-02-19T06:14:07.794Z,7.53
2023-02-19T06:16:35.146Z,6.72
2023-02-19T06:19:04.206Z,6.90
2023-02-19T06:21:31.728Z,7.18
2023-02-19T06:23:59.012Z,7.03
2023-02-19T06:26:26.602Z,6.82
2023-02-19T06:28:54.659Z,6.78
2023-02-19T06:31:23.422Z,6.22
2023-02-19T06:33:51.000Z,6.53
2023-02-19T06:36:20.342Z,6.05
2023-02-19T06:38:48.016Z,7.20
2023-02-19T06:41:15.497Z,6.90
2023-02-19T06:43:43.138Z,6.47
2023-02-19T06:46:11.527Z,6.55
2023-02-19T06:48:40.407Z,6.68
2023-02-19T06:51:07.985Z,6.18
2023-02-19T06:53:35.322Z,6.80
2023-02-19T06:56:20.800Z,6.50
2023-02-19T06:58:48.213Z,6.13
2023-02-19T07:01:15.574Z,6.32
2023-02-19T07:03:43.097Z,6.90
2023-02-19T07:06:10.487Z,7.03
2023-02-19T07:08:37.834Z,6.35
2023-02-19T07:11:05.317Z,5.47
2023-02-19T07:13:32.753Z,5.82
2023-02-19T07:16:02.475Z,6.32
2023-02-19T07:18:30.761Z,5.93
2023-02-19T07:21:10.061Z,6.47
2023-02-19T07:23:38.047Z,6.30
2023-02-19T07:26:10.129Z,6.15
2023-02-19T07:28:37.439Z,5.95
2023-02-19T07:31:05.099Z,6.03
2023-02-19T07:33:32.435Z,5.95
2023-02-19T07:35:59.690Z,5.40
2023-02-19T07:38:27.577Z,6.30
2023-02-19T07:40:56.990Z,5.75
2023-02-19T07:43:25.989Z,6.28
2023-02-19T07:45:53.499Z,6.00
2023-02-19T07:48:21.387Z,6.00
2023-02-19T07:50:53.044Z,5.75
2023-02-19T07:53:21.308Z,6.40
2023-02-19T07:55:48.592Z,5.70
2023-02-19T07:58:16.288Z,6.13
2023-02-19T08:00:44.472Z,6.15
2023-02-19T08:03:11.895Z,5.93
2023-02-19T08:05:41.051Z,5.85
2023-02-19T08:08:10.187Z,5.65
2023-02-19T08:10:56.043Z,6.10
2023-02-19T08:13:25.313Z,6.07
2023-02-19T08:15:55.131Z,5.57
2023-02-19T08:18:29.155Z,6.35
2023-02-19T08:20:57.730Z,5.43
2023-02-19T08:23:26.032Z,5.93
2023-02-19T08:25:56.588Z,6.68
2023-02-19T08:28:24.378Z,5.68
2023-02-19T08:30:51.976Z,11.52
2023-02-19T08:33:21.565Z,8.20
2023-02-19T08:35:48.870Z,7.22
2023-02-19T08:38:18.945Z,5.82
2023-02-19T08:40:46.271Z,6.65
2023-02-19T08:43:16.496Z,6.38
2023-02-19T08:45:45.886Z,6.32
2023-02-19T08:48:13.560Z,6.13
2023-02-19T08:50:41.100Z,5.95
2023-02-19T08:53:08.651Z,5.53
2023-02-19T08:55:38.546Z,5.90
2023-02-19T08:58:05.858Z,5.82
2023-02-19T09:00:33.197Z,5.80
2023-02-19T09:03:03.405Z,5.82
2023-02-19T09:05:30.704Z,5.47
2023-02-19T09:07:57.906Z,5.68
2023-02-19T09:10:25.184Z,5.60
2023-02-19T09:12:52.448Z,5.82
2023-02-19T09:15:19.727Z,5.30
2023-02-19T09:17:54.157Z,5.53
2023-02-19T09:20:21.453Z,5.88
2023-02-19T09:22:48.784Z,5.35
2023-02-19T09:25:16.246Z,5.22
2023-02-19T09:27:43.657Z,6.25
2023-02-19T09:30:11.188Z,5.63
2023-02-19T09:32:38.410Z,4.30
2023-02-19T09:35:06.129Z,5.28
2023-02-19T09:37:34.228Z,5.32
2023-02-19T09:40:01.546Z,6.10
2023-02-19T09:42:31.292Z,5.00
2023-02-19T09:45:01.558Z,4.57
2023-02-19T09:47:31.931Z,5.03
2023-02-19T09:50:06.040Z,4.20
2023-02-19T09:52:41.676Z,5.95
2023-02-19T09:55:16.108Z,6.47
2023-02-19T09:57:44.960Z,6.53
2023-02-19T10:00:12.482Z,5.88
2023-02-19T10:02:39.746Z,4.47
2023-02-19T10:05:16.950Z,5.25
2023-02-19T10:07:46.750Z,4.93
2023-02-19T10:10:13.953Z,4.70
2023-02-19T10:12:46.773Z,4.57
2023-02-19T10:15:39.666Z,4.22
2023-02-19T10:18:10.076Z,5.05
2023-02-19T10:20:38.746Z,4.65
2023-02-19T10:23:08.585Z,4.80
2023-02-19T10:25:37.332Z,5.15
2023-02-19T10:28:06.821Z,4.20
2023-02-19T10:30:36.073Z,4.15
2023-02-19T10:33:10.588Z,4.53
2023-02-19T10:35:57.902Z,4.72
2023-02-19T10:38:39.070Z,4.75
2023-02-19T10:41:21.277Z,5.07
2023-02-19T10:44:02.629Z,5.50
2023-02-19T10:46:34.669Z,6.18
2023-02-19T10:49:06.235Z,6.38
2023-02-19T10:51:38.271Z,7.28
2023-02-19T10:54:24.393Z,6.88
2023-02-19T10:56:51.630Z,8.38
2023-02-19T10:59:18.895Z,8.35
2023-02-19T11:02:06.266Z,8.07
2023-02-19T11:04:35.562Z,8.05
2023-02-19T11:07:18.127Z,7.70
2023-02-19T11:09:49.500Z,7.90
2023-02-19T11:12:26.898Z,6.93
2023-02-19T11:14:54.673Z,7.72
2023-02-19T11:17:21.816Z,7.25
2023-02-19T11:19:53.725Z,7.90
2023-02-19T11:22:41.947Z,7.10
2023-02-19T11:25:15.345Z,7.45
2023-02-19T11:27:57.818Z,5.05
2023-02-19T11:30:33.874Z,5.13
2023-02-19T11:33:19.749Z,6.55
2023-02-19T11:35:48.262Z,7.65
2023-02-19T11:38:18.904Z,7.80
2023-02-19T11:40:46.122Z,8.00
2023-02-19T11:43:22.968Z,7.07
2023-02-19T11:46:09.759Z,5.88
2023-02-19T11:49:09.405Z,6.57
2023-02-19T11:52:00.592Z,6.88
2023-02-19T11:54:52.064Z,6.68
2023-02-19T11:57:42.746Z,6.90
2023-02-19T12:00:24.126Z,5.72
2023-02-19T12:03:29.540Z,6.43
2023-02-19T12:05:56.726Z,5.30
2023-02-19T12:08:33.076Z,5.20
2023-02-19T12:11:09.408Z,5.28
2023-02-19T12:13:36.673Z,5.40
2023-02-19T12:16:19.696Z,4.80
2023-02-19T12:18:59.114Z,4.70
2023-02-19T12:21:54.329Z,5.45
2023-02-19T12:24:40.147Z,5.38
2023-02-19T12:27:28.972Z,5.25
2023-02-19T12:30:33.885Z,5.47
2023-02-19T12:33:38.507Z,4.97
2023-02-19T12:36:14.571Z,5.43
2023-02-19T12:38:47.952Z,4.85
2023-02-19T12:41:27.386Z,5.10
2023-02-19T12:44:04.366Z,6.40
2023-02-19T12:46:36.577Z,6.95
2023-02-19T12:49:15.537Z,6.93
2023-02-19T12:51:47.449Z,6.70
2023-02-19T12:54:17.449Z,6.13
2023-02-19T12:57:12.938Z,5.60
2023-02-19T12:59:55.284Z,5.57
2023-02-19T13:02:44.411Z,5.43
2023-02-19T13:05:30.095Z,5.70
2023-02-19T13:08:05.328Z,5.38
2023-02-19T13:10:36.661Z,4.93
2023-02-19T13:13:10.213Z,4.82
2023-02-19T13:15:41.789Z,4.53
2023-02-19T13:18:30.158Z,4.80
2023-02-19T13:20:58.253Z,4.50
2023-02-19T13:23:47.719Z,4.60
2023-02-19T13:26:33.308Z,3.80
2023-02-19T13:29:26.554Z,4.32
2023-02-19T13:32:05.671Z,3.55
2023-02-19T13:34:48.083Z,4.10
2023-02-19T13:37:16.678Z,4.60
2023-02-19T13:39:50.119Z,4.18
2023-02-19T13:42:32.787Z,4.85
2023-02-19T13:45:03.782Z,4.22
2023-02-19T13:47:59.861Z,4.05
2023-02-19T13:50:28.751Z,4.50
2023-02-19T13:52:59.298Z,4.13
2023-02-19T13:55:42.533Z,4.63
2023-02-19T13:58:58.589Z,4.15
2023-02-19T14:01:53.244Z,3.55
2023-02-19T14:04:41.674Z,4.07
2023-02-19T14:07:08.919Z,3.90
2023-02-19T14:09:36.105Z,3.92
2023-02-19T14:12:20.018Z,4.72
2023-02-19T14:14:51.800Z,4.13
2023-02-19T14:17:48.322Z,4.00
2023-02-19T14:20:15.489Z,4.55
2023-02-19T14:22:57.792Z,4.20
2023-02-19T14:25:29.093Z,3.45
2023-02-19T14:28:30.128Z,4.57
2023-02-19T14:31:11.358Z,3.72
2023-02-19T14:33:44.761Z,3.88
2023-02-19T14:36:53.180Z,4.15
2023-02-19T14:39:31.247Z,3.85
2023-02-19T14:42:05.738Z,4.22
2023-02-19T14:44:47.298Z,3.95
2023-02-19T14:47:18.281Z,4.32
2023-02-19T14:49:49.825Z,4.38
2023-02-19T14:52:40.589Z,4.72
2023-02-19T14:55:20.795Z,4.45
2023-02-19T14:57:50.173Z,4.20
2023-02-19T15:00:39.638Z,4.90
2023-02-19T15:03:24.117Z,4.57
2023-02-19T15:05:57.136Z,4.47
2023-02-19T15:08:30.939Z,4.55
2023-02-19T15:10:59.063Z,4.10
2023-02-19T15:13:29.200Z,4.32
2023-02-19T15:15:57.974Z,4.15
2023-02-19T15:18:26.926Z,4.60
2023-02-19T15:21:05.762Z,4.68
2023-02-19T15:23:35.902Z,5.10
2023-02-19T15:26:03.371Z,4.32
2023-02-19T15:28:33.259Z,4.18
2023-02-19T15:31:00.528Z,3.70
2023-02-19T15:33:28.258Z,4.68
2023-02-19T15:35:59.026Z,3.97
2023-02-19T15:38:27.074Z,3.88
2023-02-19T15:40:57.723Z,4.03
2023-02-19T15:43:29.629Z,3.92
2023-02-19T15:46:03.991Z,3.83
2023-02-19T15:48:38.861Z,4.45
2023-02-19T15:51:13.751Z,3.92
2023-02-19T15:53:53.585Z,4.53
2023-02-19T15:56:32.284Z,3.80
2023-02-19T15:59:11.862Z,4.60
2023-02-19T16:01:39.963Z,4.38
2023-02-19T16:04:13.994Z,5.00
2023-02-19T16:07:01.999Z,3.72
2023-02-19T16:09:35.791Z,4.25
2023-02-19T16:12:19.474Z,4.20
2023-02-19T16:14:46.764Z,4.85
2023-02-19T16:17:16.521Z,5.45
2023-02-19T16:19:43.931Z,5.00
2023-02-19T16:22:13.573Z,5.07
2023-02-19T16:24:53.564Z,4.63
2023-02-19T16:27:31.719Z,4.78
2023-02-19T16:30:10.493Z,4.60
2023-02-19T16:32:37.783Z,4.95
2023-02-19T16:35:26.239Z,5.03
2023-02-19T16:37:58.653Z,4.70
2023-02-19T16:40:47.450Z,4.63
2023-02-19T16:43:14.748Z,4.93
2023-02-19T16:45:46.904Z,3.97
2023-02-19T16:48:14.432Z,4.57
2023-02-19T16:50:42.320Z,4.95
2023-02-19T16:53:20.705Z,4.30
2023-02-19T16:55:48.644Z,4.60
2023-02-19T16:58:15.932Z,4.85
2023-02-19T17:00:43.376Z,4.30
2023-02-19T17:03:14.494Z,4.40
2023-02-19T17:05:42.393Z,4.95
2023-02-19T17:08:34.850Z,4.47
2023-02-19T17:11:04.435Z,4.30
2023-02-19T17:13:31.910Z,4.43
2023-02-19T17:15:59.563Z,4.38
2023-02-19T17:18:27.108Z,4.93
2023-02-19T17:21:05.724Z,4.70
2023-02-19T17:23:32.967Z,4.80
2023-02-19T17:26:00.212Z,4.88
2023-02-19T17:28:27.567Z,4.55
2023-02-19T17:30:54.834Z,4.55
2023-02-19T17:33:22.077Z,4.30
2023-02-19T17:35:49.263Z,4.53
2023-02-19T17:38:16.448Z,4.40
2023-02-19T17:40:45.182Z,5.07
2023-02-19T17:43:12.408Z,4.47
2023-02-19T17:45:39.636Z,4.05
2023-02-19T17:48:06.929Z,4.45
2023-02-19T17:50:34.213Z,4.60
2023-02-19T17:53:01.535Z,4.88
2023-02-19T17:55:28.893Z,4.13
2023-02-19T17:57:56.741Z,4.35
2023-02-19T18:00:27.086Z,4.53
2023-02-19T18:02:54.940Z,4.85
2023-02-19T18:05:22.901Z,4.40
2023-02-19T18:07:50.903Z,4.40
2023-02-19T18:10:19.772Z,4.85
2023-02-19T18:12:47.302Z,4.93
2023-02-19T18:15:23.042Z,4.82
2023-02-19T18:17:50.564Z,5.03
2023-02-19T18:20:21.878Z,5.32
2023-02-19T18:22:49.214Z,4.65
2023-02-19T18:25:17.640Z,5.03
2023-02-19T18:27:45.005Z,5.03
2023-02-19T18:30:15.491Z,4.63
2023-02-19T18:32:42.787Z,5.30
2023-02-19T18:35:10.082Z,4.97
2023-02-19T18:37:37.337Z,5.35
2023-02-19T18:40:05.836Z,5.53
2023-02-19T18:42:33.272Z,5.07
2023-02-19T18:45:00.582Z,5.75
2023-02-19T18:47:27.857Z,5.65
2023-02-19T18:49:57.488Z,5.85
2023-02-19T18:52:25.735Z,6.30
2023-02-19T18:54:55.262Z,5.95
2023-02-19T18:57:23.967Z,5.88
2023-02-19T18:59:51.459Z,6.07
2023-02-19T19:02:19.752Z,6.07
2023-02-19T19:04:52.800Z,5.85
2023-02-19T19:09:47.922Z,5.72
2023-02-19T19:12:15.817Z,5.32
2023-02-19T19:14:43.539Z,6.18
2023-02-19T19:17:10.827Z,5.53
2023-02-19T19:19:38.254Z,5.57
2023-02-19T19:22:05.509Z,5.72
2023-02-19T19:24:32.766Z,5.50
2023-02-19T19:27:00.129Z,5.57
2023-02-19T19:29:27.807Z,5.95
2023-02-19T19:31:55.102Z,5.25
2023-02-19T19:34:22.559Z,5.93
2023-02-19T19:36:49.771Z,5.78
2023-02-19T19:39:17.092Z,5.78
2023-02-19T19:41:44.396Z,5.57
2023-02-19T19:44:12.413Z,6.03
2023-02-19T19:46:44.631Z,6.13
2023-02-19T19:49:12.274Z,5.17
2023-02-19T19:51:39.686Z,6.82
2023-02-19T19:54:08.410Z,6.60
2023-02-19T19:56:43.824Z,6.60
2023-02-19T19:59:12.753Z,6.35
2023-02-19T20:01:51.207Z,6.13
2023-02-19T20:04:21.185Z,6.40
2023-02-19T20:06:48.788Z,8.40
2023-02-19T20:09:17.733Z,6.25
2023-02-19T20:11:50.437Z,6.13
2023-02-19T20:14:19.819Z,7.10
2023-02-19T20:16:47.794Z,8.13
2023-02-19T20:19:16.771Z,7.35
2023-02-19T20:21:48.149Z,7.45
2023-02-19T20:24:26.139Z,7.75
2023-02-19T20:26:58.426Z,8.23
2023-02-19T20:29:28.713Z,8.00
2023-02-19T20:31:59.620Z,7.97
2023-02-19T20:34:27.720Z,7.88
2023-02-19T20:36:55.076Z,7.82
2023-02-19T20:39:22.715Z,9.23
2023-02-19T20:41:51.896Z,8.23
2023-02-19T20:44:19.885Z,7.60
2023-02-19T20:46:49.585Z,7.72
2023-02-19T20:49:19.308Z,7.45
2023-02-19T20:51:50.193Z,7.95
2023-02-19T20:54:18.796Z,7.05
2023-02-19T20:56:47.381Z,7.72
2023-02-19T20:59:15.955Z,7.07
2023-02-19T21:01:43.367Z,7.60
2023-02-19T21:04:11.325Z,7.68
2023-02-19T21:06:38.887Z,8.30
2023-02-19T21:09:06.501Z,7.88
2023-02-19T21:11:34.020Z,7.72
2023-02-19T21:14:01.400Z,8.10
2023-02-19T21:16:30.634Z,7.57
2023-02-19T21:18:58.893Z,7.75
2023-02-19T21:21:27.039Z,7.95
2023-02-19T21:23:55.560Z,7.75
2023-02-19T21:26:23.362Z,7.57
2023-02-19T21:28:51.754Z,7.90
2023-02-19T21:31:19.711Z,8.57
2023-02-19T21:33:47.196Z,8.52
2023-02-19T21:36:14.729Z,8.27
2023-02-19T21:38:42.112Z,8.43
2023-02-19T21:41:09.327Z,8.00
2023-02-19T21:43:36.759Z,8.45
2023-02-19T21:46:04.252Z,7.47
2023-02-19T21:48:31.624Z,8.68
2023-02-19T21:50:58.925Z,16.63
2023-02-19T21:53:26.325Z,18.27
2023-02-19T21:55:58.720Z,21.90
2023-02-19T21:58:26.728Z,20.17
2023-02-19T22:00:54.184Z,14.50
2023-02-19T22:03:21.629Z,13.13
2023-02-19T22:05:48.966Z,12.80
2023-02-19T22:08:17.510Z,12.45
2023-02-19T22:10:44.861Z,12.55
2023-02-19T22:13:12.259Z,12.07
2023-02-19T22:15:39.545Z,11.45
2023-02-19T22:18:06.858Z,11.50
2023-02-19T22:20:34.735Z,11.27
2023-02-19T22:23:02.018Z,12.15
2023-02-19T22:25:29.219Z,10.98
2023-02-19T22:27:56.501Z,10.77
2023-02-19T22:30:24.092Z,11.32
2023-02-19T22:32:51.324Z,11.48
2023-02-19T22:35:18.634Z,11.98
2023-02-19T22:37:45.955Z,11.10
2023-02-19T22:40:13.380Z,12.00
2023-02-19T22:42:40.903Z,11.57
2023-02-19T22:45:11.337Z,11.68
2023-02-19T22:47:40.019Z,11.23
2023-02-19T22:50:07.863Z,12.85
2023-02-19T22:52:35.217Z,11.25
2023-02-19T22:55:02.574Z,11.60
2023-02-19T22:57:29.872Z,11.18
2023-02-19T22:59:57.077Z,11.85
2023-02-19T23:02:24.812Z,11.77
2023-02-19T23:04:52.192Z,11.05
2023-02-19T23:07:19.448Z,10.73
2023-02-19T23:09:46.745Z,10.50
2023-02-19T23:12:14.069Z,11.98
2023-02-19T23:14:41.300Z,11.77
2023-02-19T23:17:08.694Z,11.43
2023-02-19T23:19:36.800Z,11.40
2023-02-19T23:22:04.500Z,11.57
2023-02-19T23:24:32.106Z,10.65
2023-02-19T23:27:00.576Z,10.35
2023-02-19T23:29:29.695Z,11.23
2023-02-19T23:31:57.171Z,11.05
2023-02-19T23:34:24.551Z,11.18
2023-02-19T23:36:52.404Z,11.50
2023-02-19T23:39:21.840Z,11.35
2023-02-19T23:41:54.937Z,9.82
2023-02-19T23:46:51.793Z,10.50
2023-02-19T23:49:19.735Z,10.07
2023-02-19T23:51:47.247Z,9.02
2023-02-19T23:54:15.114Z,10.45
2023-02-19T23:56:42.528Z,9.80
2023-02-19T23:59:10.049Z,9.88
